UKOO/ODS METAR and TAF weather

Enter ICAO airport designator
Station Type Date Time Source
UKOO METAR 2019/12/07 07:30 UTC NOAA

UKOO 070730Z 22004MPS 9999 BKN029 07/06 Q1017 R16/190058 NOSIG


Station Type Date Time Source
UKOO Decoded METAR 2019/12/07 07:30 UTC NOAA

Odesa, Ukraine (UKOO) 46-26N 030-46E 42M
Dec 07, 2019 - 02:30 AM EST / 2019.12.07 0730 UTC
Wind: from the SW (220 degrees) at 9 MPH (8 KT):0
Visibility: greater than 7 mile(s):0
Sky conditions: mostly cloudy
Temperature: 44 F (7 C)
Dew Point: 42 F (6 C)
Relative Humidity: 93%
Pressure (altimeter): 30.03 in. Hg (1017 hPa)
ob: UKOO 070730Z 22004MPS 9999 BKN029 07/06 Q1017 R16/190058 NOSIG
cycle: 7

Station Type Date Time Source
UKOO TAF 2019/12/07 06:09 UTC NOAA

TAF UKOO 070505Z 0706/0806 21006G13MPS 6000 SCT004 BKN007 SCT015CB TX10/0712Z TN00/0804Z
TEMPO 0712/0716 25003MPS
BECMG 0716/0717 34003G08MPS 2100 BR

Example: see airport list